Minot International Airport
KMOT : rendu visible

Aérodrome :











RETROUVEZ-NOUS SUR...

 
LOGIN :

S'inscrire | Disclaimer

   EN    FR    IT 

 









Légende :    VFR   VFR Marginal   IFR   IFR Intensif   IFR Très Intensif
Visi : 
Plafond : 
>= 8 km
>= 3000ft
5 à 8 km
1000 à 3000 ft
1500m à 5 km
500 à 1000 ft
800 à 1500m
200 à 500 ft
< 800m
< 200 ft
Symboles :   Orages  Brouillard  Fortes neiges  Fortes précipitations  Vent > 20 kt






- Altitude de l'aérodrome : 1716 ft
- Code IATA : MOT


KMOT - Minot International

DERNIER METAR :
  • 241817Z 28011KT 10SM OVC009 M06/M09 A2989 RMK AO2 T10561089

METARs EXPIRÉS :
  • 241754Z 27013KT 10SM OVC010 M06/M09 A2990 RMK AO2 SLP151 T10561094 11050 21072 50005
  • 241654Z 29013G21KT 5SM HZ OVC009 M06/M09 A2990 RMK AO2 SLP152 T10611094
  • 241554Z 30014KT 4SM BR OVC009 M07/M09 A2990 RMK AO2 SLP151 T10721094

TAF KMOT
Valide du 24 à 18h jusqu'au 25 à 18h UTC


241738Z 2418/2518 29013G21KT 5SM BR OVC009
FM241900 30012KT P6SM OVC012
FM242300 29006KT P6SM BKN020
FM250100 27005KT P6SM SCT250
FM250600 17007KT P6SM SCT015
FM251600 21011G19KT P6SM SCT250
FIR KZMP / Amérique du Nord



MET'MAP, la Météo Aéronautique d'un coup d'oeil ! - Copyright ORBIFLY Décembre 2007 - Disclaimer

ORBIFLY MET'MAP TEAM :

Programmation & Développement : Alexandra Zaïnal
Sur une idée originale de : Baudouin d'Aumeries
Assistance à la programmation : Marc-Olivier Méhu
Soutien technique & logistique : Manuel Goepfert

Contact : metmap@orbifly.com




SOURCES & CREDITS :

   NOAA       Earth
Advisory